sensor_id;sensor_type;location;lat;lon;timestamp;P1;durP1;ratioP1;P2;durP2;ratioP2
11269;SDS011;5692;48.956;9.200;2023-09-30T00:01:38;321.55;;;306.15;;
11269;SDS011;5692;48.956;9.200;2023-09-30T00:04:04;337.60;;;321.50;;
11269;SDS011;5692;48.956;9.200;2023-09-30T00:06:31;339.30;;;323.08;;
11269;SDS011;5692;48.956;9.200;2023-09-30T00:08:57;315.20;;;300.13;;
11269;SDS011;5692;48.956;9.200;2023-09-30T00:11:23;318.90;;;303.67;;
11269;SDS011;5692;48.956;9.200;2023-09-30T00:13:48;321.87;;;306.50;;
11269;SDS011;5692;48.956;9.200;2023-09-30T00:16:15;317.05;;;301.90;;
11269;SDS011;5692;48.956;9.200;2023-09-30T00:18:42;313.27;;;298.33;;
11269;SDS011;5692;48.956;9.200;2023-09-30T00:21:08;309.10;;;294.30;;
11269;SDS011;5692;48.956;9.200;2023-09-30T00:23:34;302.13;;;287.70;;
11269;SDS011;5692;48.956;9.200;2023-09-30T00:25:59;315.73;;;300.67;;
11269;SDS011;5692;48.956;9.200;2023-09-30T00:28:25;324.35;;;308.85;;
11269;SDS011;5692;48.956;9.200;2023-09-30T00:30:51;321.87;;;306.47;;
11269;SDS011;5692;48.956;9.200;2023-09-30T00:33:17;305.30;;;290.70;;
11269;SDS011;5692;48.956;9.200;2023-09-30T00:35:42;307.67;;;292.97;;
11269;SDS011;5692;48.956;9.200;2023-09-30T00:38:08;309.70;;;294.90;;
11269;SDS011;5692;48.956;9.200;2023-09-30T00:40:35;319.98;;;304.67;;
11269;SDS011;5692;48.956;9.200;2023-09-30T00:43:00;304.13;;;289.63;;
11269;SDS011;5692;48.956;9.200;2023-09-30T00:45:26;301.10;;;286.70;;
11269;SDS011;5692;48.956;9.200;2023-09-30T00:47:52;311.98;;;297.08;;
11269;SDS011;5692;48.956;9.200;2023-09-30T00:50:19;326.63;;;311.03;;
11269;SDS011;5692;48.956;9.200;2023-09-30T00:52:45;322.90;;;307.48;;
11269;SDS011;5692;48.956;9.200;2023-09-30T00:55:13;321.45;;;306.10;;
11269;SDS011;5692;48.956;9.200;2023-09-30T00:57:40;303.88;;;289.38;;
11269;SDS011;5692;48.956;9.200;2023-09-30T01:00:06;313.07;;;298.10;;
11269;SDS011;5692;48.956;9.200;2023-09-30T01:02:36;325.33;;;309.80;;
11269;SDS011;5692;48.956;9.200;2023-09-30T01:05:04;325.17;;;309.67;;
11269;SDS011;5692;48.956;9.200;2023-09-30T01:07:30;316.47;;;301.37;;
11269;SDS011;5692;48.956;9.200;2023-09-30T01:09:55;314.10;;;299.10;;
11269;SDS011;5692;48.956;9.200;2023-09-30T01:12:21;322.50;;;307.10;;
11269;SDS011;5692;48.956;9.200;2023-09-30T01:14:47;343.37;;;326.97;;
11269;SDS011;5692;48.956;9.200;2023-09-30T01:17:12;331.33;;;315.53;;
11269;SDS011;5692;48.956;9.200;2023-09-30T01:19:39;325.90;;;310.33;;
11269;SDS011;5692;48.956;9.200;2023-09-30T01:22:05;342.20;;;325.85;;
11269;SDS011;5692;48.956;9.200;2023-09-30T01:24:39;314.30;;;299.27;;
11269;SDS011;5692;48.956;9.200;2023-09-30T01:27:05;316.30;;;301.20;;
11269;SDS011;5692;48.956;9.200;2023-09-30T01:29:31;319.57;;;304.27;;
11269;SDS011;5692;48.956;9.200;2023-09-30T01:31:57;317.73;;;302.52;;
11269;SDS011;5692;48.956;9.200;2023-09-30T01:34:23;308.57;;;293.87;;
11269;SDS011;5692;48.956;9.200;2023-09-30T01:36:48;319.33;;;304.07;;
11269;SDS011;5692;48.956;9.200;2023-09-30T01:39:14;314.87;;;299.83;;
11269;SDS011;5692;48.956;9.200;2023-09-30T01:41:39;307.00;;;292.30;;
11269;SDS011;5692;48.956;9.200;2023-09-30T01:44:06;300.13;;;285.80;;
11269;SDS011;5692;48.956;9.200;2023-09-30T01:46:32;305.67;;;291.08;;
11269;SDS011;5692;48.956;9.200;2023-09-30T01:48:58;310.02;;;295.23;;
11269;SDS011;5692;48.956;9.200;2023-09-30T01:51:24;302.77;;;288.30;;
11269;SDS011;5692;48.956;9.200;2023-09-30T01:53:50;297.40;;;283.20;;
11269;SDS011;5692;48.956;9.200;2023-09-30T01:56:15;316.07;;;300.97;;
11269;SDS011;5692;48.956;9.200;2023-09-30T01:58:41;322.13;;;306.77;;
11269;SDS011;5692;48.956;9.200;2023-09-30T02:01:07;315.93;;;300.83;;
11269;SDS011;5692;48.956;9.200;2023-09-30T02:03:34;299.67;;;285.38;;
11269;SDS011;5692;48.956;9.200;2023-09-30T02:05:59;324.57;;;309.07;;
11269;SDS011;5692;48.956;9.200;2023-09-30T02:08:25;310.20;;;295.40;;
11269;SDS011;5692;48.956;9.200;2023-09-30T02:10:50;324.07;;;308.57;;
11269;SDS011;5692;48.956;9.200;2023-09-30T02:13:17;325.50;;;309.95;;
11269;SDS011;5692;48.956;9.200;2023-09-30T02:15:43;312.60;;;297.65;;
11269;SDS011;5692;48.956;9.200;2023-09-30T02:18:09;320.60;;;305.30;;
11269;SDS011;5692;48.956;9.200;2023-09-30T02:20:35;311.15;;;296.27;;
11269;SDS011;5692;48.956;9.200;2023-09-30T02:23:04;313.67;;;298.67;;
11269;SDS011;5692;48.956;9.200;2023-09-30T02:25:35;311.52;;;296.63;;
11269;SDS011;5692;48.956;9.200;2023-09-30T02:28:04;322.42;;;307.02;;
11269;SDS011;5692;48.956;9.200;2023-09-30T02:30:34;322.88;;;307.45;;
11269;SDS011;5692;48.956;9.200;2023-09-30T02:33:00;319.95;;;304.67;;
11269;SDS011;5692;48.956;9.200;2023-09-30T02:35:26;309.90;;;295.10;;
11269;SDS011;5692;48.956;9.200;2023-09-30T02:37:52;310.20;;;295.37;;
11269;SDS011;5692;48.956;9.200;2023-09-30T02:40:18;324.02;;;308.52;;
11269;SDS011;5692;48.956;9.200;2023-09-30T02:42:44;329.75;;;314.00;;
11269;SDS011;5692;48.956;9.200;2023-09-30T02:45:10;340.03;;;323.80;;
11269;SDS011;5692;48.956;9.200;2023-09-30T02:47:37;327.83;;;312.17;;
11269;SDS011;5692;48.956;9.200;2023-09-30T02:50:05;307.00;;;292.35;;
11269;SDS011;5692;48.956;9.200;2023-09-30T02:52:41;332.67;;;316.77;;
11269;SDS011;5692;48.956;9.200;2023-09-30T02:55:08;330.67;;;314.87;;
11269;SDS011;5692;48.956;9.200;2023-09-30T02:57:37;342.40;;;326.02;;
11269;SDS011;5692;48.956;9.200;2023-09-30T03:00:03;314.52;;;299.48;;
11269;SDS011;5692;48.956;9.200;2023-09-30T03:02:48;339.83;;;323.63;;
11269;SDS011;5692;48.956;9.200;2023-09-30T03:05:15;338.83;;;322.63;;
11269;SDS011;5692;48.956;9.200;2023-09-30T03:07:42;325.20;;;309.65;;
11269;SDS011;5692;48.956;9.200;2023-09-30T03:10:08;328.83;;;313.13;;
11269;SDS011;5692;48.956;9.200;2023-09-30T03:12:34;332.48;;;316.60;;
11269;SDS011;5692;48.956;9.200;2023-09-30T03:15:00;325.15;;;309.65;;
11269;SDS011;5692;48.956;9.200;2023-09-30T03:17:29;336.45;;;320.38;;
11269;SDS011;5692;48.956;9.200;2023-09-30T03:19:54;327.43;;;311.80;;
11269;SDS011;5692;48.956;9.200;2023-09-30T03:22:22;333.25;;;317.35;;
11269;SDS011;5692;48.956;9.200;2023-09-30T03:24:47;326.13;;;310.57;;
11269;SDS011;5692;48.956;9.200;2023-09-30T03:27:13;327.43;;;311.80;;
11269;SDS011;5692;48.956;9.200;2023-09-30T03:29:40;328.55;;;312.85;;
11269;SDS011;5692;48.956;9.200;2023-09-30T03:32:06;329.60;;;313.83;;
11269;SDS011;5692;48.956;9.200;2023-09-30T03:34:32;343.33;;;326.93;;
11269;SDS011;5692;48.956;9.200;2023-09-30T03:37:01;332.42;;;316.55;;
11269;SDS011;5692;48.956;9.200;2023-09-30T03:39:26;330.53;;;314.73;;
11269;SDS011;5692;48.956;9.200;2023-09-30T03:41:55;328.20;;;312.53;;
11269;SDS011;5692;48.956;9.200;2023-09-30T03:44:22;326.83;;;311.20;;
11269;SDS011;5692;48.956;9.200;2023-09-30T03:46:48;299.47;;;285.17;;
11269;SDS011;5692;48.956;9.200;2023-09-30T03:49:14;319.13;;;303.88;;
11269;SDS011;5692;48.956;9.200;2023-09-30T03:51:41;307.45;;;292.75;;
11269;SDS011;5692;48.956;9.200;2023-09-30T03:54:07;296.40;;;282.20;;
11269;SDS011;5692;48.956;9.200;2023-09-30T03:56:33;319.73;;;304.45;;
11269;SDS011;5692;48.956;9.200;2023-09-30T03:58:59;313.60;;;298.60;;
11269;SDS011;5692;48.956;9.200;2023-09-30T04:01:25;322.27;;;306.87;;
11269;SDS011;5692;48.956;9.200;2023-09-30T04:03:51;325.58;;;310.02;;
11269;SDS011;5692;48.956;9.200;2023-09-30T04:06:21;309.27;;;294.50;;
11269;SDS011;5692;48.956;9.200;2023-09-30T04:08:47;319.63;;;304.37;;
11269;SDS011;5692;48.956;9.200;2023-09-30T04:11:12;322.53;;;307.13;;
11269;SDS011;5692;48.956;9.200;2023-09-30T04:13:43;322.05;;;306.65;;
11269;SDS011;5692;48.956;9.200;2023-09-30T04:16:10;299.00;;;284.70;;
11269;SDS011;5692;48.956;9.200;2023-09-30T04:18:35;318.20;;;303.00;;
11269;SDS011;5692;48.956;9.200;2023-09-30T04:21:01;318.90;;;303.67;;
11269;SDS011;5692;48.956;9.200;2023-09-30T04:23:29;306.23;;;291.60;;
11269;SDS011;5692;48.956;9.200;2023-09-30T04:25:55;305.65;;;291.05;;
11269;SDS011;5692;48.956;9.200;2023-09-30T04:28:21;327.77;;;312.07;;
11269;SDS011;5692;48.956;9.200;2023-09-30T04:30:49;316.00;;;300.90;;
11269;SDS011;5692;48.956;9.200;2023-09-30T04:33:16;336.25;;;320.15;;
11269;SDS011;5692;48.956;9.200;2023-09-30T04:35:43;334.67;;;318.67;;
11269;SDS011;5692;48.956;9.200;2023-09-30T04:38:09;303.75;;;289.23;;
11269;SDS011;5692;48.956;9.200;2023-09-30T04:40:35;286.80;;;273.10;;
11269;SDS011;5692;48.956;9.200;2023-09-30T04:43:02;325.05;;;309.52;;
11269;SDS011;5692;48.956;9.200;2023-09-30T04:45:28;322.93;;;307.50;;
11269;SDS011;5692;48.956;9.200;2023-09-30T04:47:53;285.77;;;272.10;;
11269;SDS011;5692;48.956;9.200;2023-09-30T04:50:21;317.52;;;302.35;;
11269;SDS011;5692;48.956;9.200;2023-09-30T04:52:47;295.73;;;281.60;;
11269;SDS011;5692;48.956;9.200;2023-09-30T04:55:16;334.05;;;318.10;;
11269;SDS011;5692;48.956;9.200;2023-09-30T04:57:43;315.30;;;300.25;;
11269;SDS011;5692;48.956;9.200;2023-09-30T05:00:17;328.45;;;312.75;;
11269;SDS011;5692;48.956;9.200;2023-09-30T05:02:44;316.20;;;301.10;;
11269;SDS011;5692;48.956;9.200;2023-09-30T05:05:11;319.08;;;303.85;;
11269;SDS011;5692;48.956;9.200;2023-09-30T05:07:36;311.70;;;296.80;;
11269;SDS011;5692;48.956;9.200;2023-09-30T05:10:05;341.37;;;325.07;;
11269;SDS011;5692;48.956;9.200;2023-09-30T05:12:35;313.70;;;298.70;;
11269;SDS011;5692;48.956;9.200;2023-09-30T05:15:00;315.67;;;300.60;;
11269;SDS011;5692;48.956;9.200;2023-09-30T05:17:27;322.52;;;307.10;;
11269;SDS011;5692;48.956;9.200;2023-09-30T05:19:53;316.98;;;301.83;;
11269;SDS011;5692;48.956;9.200;2023-09-30T05:22:20;330.80;;;315.00;;
11269;SDS011;5692;48.956;9.200;2023-09-30T05:24:50;330.35;;;314.58;;
11269;SDS011;5692;48.956;9.200;2023-09-30T05:27:17;320.80;;;305.48;;
11269;SDS011;5692;48.956;9.200;2023-09-30T05:29:43;337.55;;;321.42;;
11269;SDS011;5692;48.956;9.200;2023-09-30T05:32:08;339.60;;;323.40;;
11269;SDS011;5692;48.956;9.200;2023-09-30T05:34:34;326.37;;;310.77;;
11269;SDS011;5692;48.956;9.200;2023-09-30T05:36:59;313.17;;;298.20;;
11269;SDS011;5692;48.956;9.200;2023-09-30T05:39:26;310.50;;;295.67;;
11269;SDS011;5692;48.956;9.200;2023-09-30T05:41:53;327.52;;;311.88;;
11269;SDS011;5692;48.956;9.200;2023-09-30T05:44:20;326.33;;;310.75;;
11269;SDS011;5692;48.956;9.200;2023-09-30T05:46:46;315.15;;;300.10;;
11269;SDS011;5692;48.956;9.200;2023-09-30T05:49:12;339.93;;;323.70;;
11269;SDS011;5692;48.956;9.200;2023-09-30T05:51:41;317.40;;;302.25;;
11269;SDS011;5692;48.956;9.200;2023-09-30T05:54:07;315.58;;;300.48;;
11269;SDS011;5692;48.956;9.200;2023-09-30T05:56:37;305.42;;;290.83;;
11269;SDS011;5692;48.956;9.200;2023-09-30T05:59:06;312.52;;;297.58;;
11269;SDS011;5692;48.956;9.200;2023-09-30T06:01:32;322.15;;;306.77;;
11269;SDS011;5692;48.956;9.200;2023-09-30T06:03:58;294.23;;;280.17;;
11269;SDS011;5692;48.956;9.200;2023-09-30T06:06:25;296.17;;;282.02;;
11269;SDS011;5692;48.956;9.200;2023-09-30T06:08:52;294.25;;;280.15;;
11269;SDS011;5692;48.956;9.200;2023-09-30T06:11:19;303.90;;;289.40;;
11269;SDS011;5692;48.956;9.200;2023-09-30T06:13:49;280.95;;;267.52;;
11269;SDS011;5692;48.956;9.200;2023-09-30T06:16:20;298.23;;;283.95;;
11269;SDS011;5692;48.956;9.200;2023-09-30T06:18:46;288.83;;;275.03;;
11269;SDS011;5692;48.956;9.200;2023-09-30T06:21:13;300.65;;;286.25;;
11269;SDS011;5692;48.956;9.200;2023-09-30T06:23:40;310.33;;;295.52;;
11269;SDS011;5692;48.956;9.200;2023-09-30T06:26:05;304.07;;;289.53;;
11269;SDS011;5692;48.956;9.200;2023-09-30T06:28:31;307.80;;;293.10;;
11269;SDS011;5692;48.956;9.200;2023-09-30T06:30:59;294.42;;;280.38;;
11269;SDS011;5692;48.956;9.200;2023-09-30T06:33:25;298.47;;;284.17;;
11269;SDS011;5692;48.956;9.200;2023-09-30T06:35:50;297.83;;;283.60;;
11269;SDS011;5692;48.956;9.200;2023-09-30T06:38:19;270.37;;;257.43;;
11269;SDS011;5692;48.956;9.200;2023-09-30T06:40:45;293.98;;;279.92;;
11269;SDS011;5692;48.956;9.200;2023-09-30T06:43:14;310.02;;;295.23;;
11269;SDS011;5692;48.956;9.200;2023-09-30T06:45:43;314.88;;;299.83;;
11269;SDS011;5692;48.956;9.200;2023-09-30T06:48:10;313.40;;;298.42;;
11269;SDS011;5692;48.956;9.200;2023-09-30T06:50:39;287.05;;;273.35;;
11269;SDS011;5692;48.956;9.200;2023-09-30T06:53:09;302.00;;;287.55;;
11269;SDS011;5692;48.956;9.200;2023-09-30T06:55:39;298.63;;;284.35;;
11269;SDS011;5692;48.956;9.200;2023-09-30T06:58:05;285.90;;;272.23;;
11269;SDS011;5692;48.956;9.200;2023-09-30T07:00:33;300.10;;;285.75;;
11269;SDS011;5692;48.956;9.200;2023-09-30T07:03:01;296.77;;;282.58;;
11269;SDS011;5692;48.956;9.200;2023-09-30T07:05:27;292.63;;;278.63;;
11269;SDS011;5692;48.956;9.200;2023-09-30T07:07:54;284.67;;;271.08;;
11269;SDS011;5692;48.956;9.200;2023-09-30T07:10:19;281.00;;;267.57;;
11269;SDS011;5692;48.956;9.200;2023-09-30T07:12:45;282.33;;;268.83;;
11269;SDS011;5692;48.956;9.200;2023-09-30T07:15:11;288.03;;;274.27;;
11269;SDS011;5692;48.956;9.200;2023-09-30T07:17:38;287.42;;;273.70;;
11269;SDS011;5692;48.956;9.200;2023-09-30T07:20:05;290.42;;;276.55;;
11269;SDS011;5692;48.956;9.200;2023-09-30T07:22:32;287.48;;;273.73;;
11269;SDS011;5692;48.956;9.200;2023-09-30T07:24:58;275.17;;;262.02;;
11269;SDS011;5692;48.956;9.200;2023-09-30T07:27:23;281.17;;;267.73;;
11269;SDS011;5692;48.956;9.200;2023-09-30T07:29:49;297.07;;;282.87;;
11269;SDS011;5692;48.956;9.200;2023-09-30T07:32:15;296.77;;;282.57;;
11269;SDS011;5692;48.956;9.200;2023-09-30T07:34:41;291.63;;;277.67;;
11269;SDS011;5692;48.956;9.200;2023-09-30T07:37:07;299.20;;;284.90;;
11269;SDS011;5692;48.956;9.200;2023-09-30T07:39:36;318.05;;;302.85;;
11269;SDS011;5692;48.956;9.200;2023-09-30T07:42:02;328.42;;;312.73;;
11269;SDS011;5692;48.956;9.200;2023-09-30T07:44:28;317.77;;;302.57;;
11269;SDS011;5692;48.956;9.200;2023-09-30T07:46:53;321.03;;;305.70;;
11269;SDS011;5692;48.956;9.200;2023-09-30T07:49:19;308.10;;;293.37;;
11269;SDS011;5692;48.956;9.200;2023-09-30T07:51:45;307.80;;;293.10;;
11269;SDS011;5692;48.956;9.200;2023-09-30T07:54:13;294.70;;;280.60;;
11269;SDS011;5692;48.956;9.200;2023-09-30T07:56:38;294.33;;;280.23;;
11269;SDS011;5692;48.956;9.200;2023-09-30T07:59:04;300.57;;;286.17;;
11269;SDS011;5692;48.956;9.200;2023-09-30T08:01:30;296.70;;;282.50;;
11269;SDS011;5692;48.956;9.200;2023-09-30T08:03:56;306.08;;;291.45;;
11269;SDS011;5692;48.956;9.200;2023-09-30T08:06:22;316.70;;;301.57;;
11269;SDS011;5692;48.956;9.200;2023-09-30T08:08:48;307.15;;;292.45;;
11269;SDS011;5692;48.956;9.200;2023-09-30T08:11:14;286.63;;;272.92;;
11269;SDS011;5692;48.956;9.200;2023-09-30T08:13:40;300.55;;;286.17;;
11269;SDS011;5692;48.956;9.200;2023-09-30T08:16:06;310.93;;;296.03;;
11269;SDS011;5692;48.956;9.200;2023-09-30T08:18:32;316.90;;;301.77;;
11269;SDS011;5692;48.956;9.200;2023-09-30T08:20:57;303.63;;;289.13;;
11269;SDS011;5692;48.956;9.200;2023-09-30T08:23:23;324.13;;;308.63;;
11269;SDS011;5692;48.956;9.200;2023-09-30T08:25:49;312.30;;;297.37;;
11269;SDS011;5692;48.956;9.200;2023-09-30T08:28:14;305.97;;;291.37;;
11269;SDS011;5692;48.956;9.200;2023-09-30T08:30:41;301.48;;;287.08;;
11269;SDS011;5692;48.956;9.200;2023-09-30T08:33:06;305.60;;;291.00;;
11269;SDS011;5692;48.956;9.200;2023-09-30T08:35:38;314.80;;;299.80;;
11269;SDS011;5692;48.956;9.200;2023-09-30T08:38:04;309.88;;;295.08;;
11269;SDS011;5692;48.956;9.200;2023-09-30T08:40:30;295.47;;;281.37;;
11269;SDS011;5692;48.956;9.200;2023-09-30T08:42:56;302.07;;;287.63;;
11269;SDS011;5692;48.956;9.200;2023-09-30T08:45:22;314.77;;;299.73;;
11269;SDS011;5692;48.956;9.200;2023-09-30T08:47:48;294.47;;;280.37;;
11269;SDS011;5692;48.956;9.200;2023-09-30T08:50:15;296.05;;;281.90;;
11269;SDS011;5692;48.956;9.200;2023-09-30T08:52:42;276.05;;;262.85;;
11269;SDS011;5692;48.956;9.200;2023-09-30T08:55:12;265.40;;;252.73;;
11269;SDS011;5692;48.956;9.200;2023-09-30T08:57:39;305.10;;;290.52;;
11269;SDS011;5692;48.956;9.200;2023-09-30T09:00:06;318.13;;;302.92;;
11269;SDS011;5692;48.956;9.200;2023-09-30T09:02:36;299.08;;;284.77;;
11269;SDS011;5692;48.956;9.200;2023-09-30T09:05:02;314.40;;;299.35;;
11269;SDS011;5692;48.956;9.200;2023-09-30T09:07:28;288.90;;;275.10;;
11269;SDS011;5692;48.956;9.200;2023-09-30T09:12:38;7.85;;;5.10;;
11269;SDS011;5692;48.956;9.200;2023-09-30T09:15:05;12.20;;;4.90;;
11269;SDS011;5692;48.956;9.200;2023-09-30T09:17:44;67.20;;;63.95;;
11269;SDS011;5692;48.956;9.200;2023-09-30T09:20:11;91.20;;;86.80;;
11269;SDS011;5692;48.956;9.200;2023-09-30T09:22:42;130.27;;;124.03;;
11269;SDS011;5692;48.956;9.200;2023-09-30T09:25:09;71.68;;;68.20;;
11269;SDS011;5692;48.956;9.200;2023-09-30T09:27:35;291.92;;;277.98;;
11269;SDS011;5692;48.956;9.200;2023-09-30T09:30:21;11.65;;;7.15;;
11269;SDS011;5692;48.956;9.200;2023-09-30T09:35:30;11.38;;;5.32;;
11269;SDS011;5692;48.956;9.200;2023-09-30T09:40:31;181.53;;;172.83;;
11269;SDS011;5692;48.956;9.200;2023-09-30T09:42:58;178.57;;;170.00;;
11269;SDS011;5692;48.956;9.200;2023-09-30T09:45:25;204.13;;;194.33;;
11269;SDS011;5692;48.956;9.200;2023-09-30T09:47:52;186.00;;;177.10;;
11269;SDS011;5692;48.956;9.200;2023-09-30T09:50:19;203.70;;;193.97;;
11269;SDS011;5692;48.956;9.200;2023-09-30T09:52:53;208.83;;;198.83;;
11269;SDS011;5692;48.956;9.200;2023-09-30T09:55:21;202.50;;;192.83;;
11269;SDS011;5692;48.956;9.200;2023-09-30T09:57:48;198.03;;;188.53;;
11269;SDS011;5692;48.956;9.200;2023-09-30T10:00:15;234.63;;;223.40;;
11269;SDS011;5692;48.956;9.200;2023-09-30T10:02:44;105.80;;;100.70;;
11269;SDS011;5692;48.956;9.200;2023-09-30T10:05:13;187.90;;;178.90;;
11269;SDS011;5692;48.956;9.200;2023-09-30T10:07:44;79.10;;;75.30;;
11269;SDS011;5692;48.956;9.200;2023-09-30T10:10:21;10.30;;;4.80;;
11269;SDS011;5692;48.956;9.200;2023-09-30T10:12:48;123.50;;;117.57;;
11269;SDS011;5692;48.956;9.200;2023-09-30T10:15:56;9.40;;;3.47;;
11269;SDS011;5692;48.956;9.200;2023-09-30T10:18:06;218.07;;;207.67;;
11269;SDS011;5692;48.956;9.200;2023-09-30T10:20:38;182.17;;;173.47;;
11269;SDS011;5692;48.956;9.200;2023-09-30T10:23:17;7.80;;;4.27;;
11269;SDS011;5692;48.956;9.200;2023-09-30T10:25:51;12.00;;;5.60;;
11269;SDS011;5692;48.956;9.200;2023-09-30T10:28:40;8.63;;;4.57;;
11269;SDS011;5692;48.956;9.200;2023-09-30T10:31:13;8.03;;;4.70;;
11269;SDS011;5692;48.956;9.200;2023-09-30T10:36:35;97.10;;;92.40;;
11269;SDS011;5692;48.956;9.200;2023-09-30T10:39:04;120.40;;;114.60;;
11269;SDS011;5692;48.956;9.200;2023-09-30T10:51:54;265.03;;;252.33;;
11269;SDS011;5692;48.956;9.200;2023-09-30T10:54:29;236.70;;;225.37;;
11269;SDS011;5692;48.956;9.200;2023-09-30T10:56:56;274.37;;;261.27;;
11269;SDS011;5692;48.956;9.200;2023-09-30T10:59:27;252.33;;;240.27;;
11269;SDS011;5692;48.956;9.200;2023-09-30T11:01:55;259.67;;;247.27;;
11269;SDS011;5692;48.956;9.200;2023-09-30T11:04:21;247.57;;;235.73;;
11269;SDS011;5692;48.956;9.200;2023-09-30T11:06:47;255.47;;;243.27;;
11269;SDS011;5692;48.956;9.200;2023-09-30T11:09:18;252.53;;;240.43;;
11269;SDS011;5692;48.956;9.200;2023-09-30T11:11:48;232.37;;;221.27;;
11269;SDS011;5692;48.956;9.200;2023-09-30T11:16:51;231.77;;;220.67;;
11269;SDS011;5692;48.956;9.200;2023-09-30T11:19:18;227.83;;;216.93;;
11269;SDS011;5692;48.956;9.200;2023-09-30T11:21:54;228.23;;;217.30;;
11269;SDS011;5692;48.956;9.200;2023-09-30T11:24:20;211.53;;;201.40;;
11269;SDS011;5692;48.956;9.200;2023-09-30T11:26:46;231.63;;;220.53;;
11269;SDS011;5692;48.956;9.200;2023-09-30T11:29:13;228.77;;;217.83;;
11269;SDS011;5692;48.956;9.200;2023-09-30T11:31:44;222.67;;;212.00;;
11269;SDS011;5692;48.956;9.200;2023-09-30T11:34:12;231.07;;;220.00;;
11269;SDS011;5692;48.956;9.200;2023-09-30T11:36:39;231.53;;;220.47;;
11269;SDS011;5692;48.956;9.200;2023-09-30T11:39:07;225.70;;;214.90;;
11269;SDS011;5692;48.956;9.200;2023-09-30T11:41:37;239.00;;;227.57;;
11269;SDS011;5692;48.956;9.200;2023-09-30T11:44:04;11.07;;;4.17;;
11269;SDS011;5692;48.956;9.200;2023-09-30T11:46:33;10.70;;;4.70;;
11269;SDS011;5692;48.956;9.200;2023-09-30T11:49:13;11.30;;;5.87;;
11269;SDS011;5692;48.956;9.200;2023-09-30T11:51:49;13.07;;;5.37;;
11269;SDS011;5692;48.956;9.200;2023-09-30T11:54:15;12.67;;;4.70;;
11269;SDS011;5692;48.956;9.200;2023-09-30T11:56:41;8.47;;;4.17;;
11269;SDS011;5692;48.956;9.200;2023-09-30T11:59:09;13.30;;;7.53;;
11269;SDS011;5692;48.956;9.200;2023-09-30T12:01:36;16.50;;;6.90;;
11269;SDS011;5692;48.956;9.200;2023-09-30T12:04:02;345.67;;;329.17;;
11269;SDS011;5692;48.956;9.200;2023-09-30T12:06:28;347.43;;;330.83;;
11269;SDS011;5692;48.956;9.200;2023-09-30T12:08:54;352.53;;;335.70;;
11269;SDS011;5692;48.956;9.200;2023-09-30T12:11:20;355.67;;;338.70;;
11269;SDS011;5692;48.956;9.200;2023-09-30T12:13:49;343.60;;;327.20;;
11269;SDS011;5692;48.956;9.200;2023-09-30T12:16:15;332.90;;;317.00;;
11269;SDS011;5692;48.956;9.200;2023-09-30T12:18:41;345.70;;;329.20;;
11269;SDS011;5692;48.956;9.200;2023-09-30T12:21:08;334.30;;;318.33;;
11269;SDS011;5692;48.956;9.200;2023-09-30T12:23:35;336.55;;;320.45;;
11269;SDS011;5692;48.956;9.200;2023-09-30T12:26:01;335.43;;;319.43;;
11269;SDS011;5692;48.956;9.200;2023-09-30T12:28:30;337.45;;;321.33;;
11269;SDS011;5692;48.956;9.200;2023-09-30T12:30:59;355.63;;;338.63;;
11269;SDS011;5692;48.956;9.200;2023-09-30T12:33:29;353.93;;;337.03;;
11269;SDS011;5692;48.956;9.200;2023-09-30T12:35:58;361.57;;;344.27;;
11269;SDS011;5692;48.956;9.200;2023-09-30T12:38:24;356.60;;;339.60;;
11269;SDS011;5692;48.956;9.200;2023-09-30T12:40:53;360.77;;;343.57;;
11269;SDS011;5692;48.956;9.200;2023-09-30T12:43:20;346.00;;;329.50;;
11269;SDS011;5692;48.956;9.200;2023-09-30T12:45:46;340.40;;;324.13;;
11269;SDS011;5692;48.956;9.200;2023-09-30T12:48:12;342.20;;;325.87;;
11269;SDS011;5692;48.956;9.200;2023-09-30T12:50:42;346.67;;;330.10;;
11269;SDS011;5692;48.956;9.200;2023-09-30T12:53:08;348.50;;;331.87;;
11269;SDS011;5692;48.956;9.200;2023-09-30T12:55:34;358.73;;;341.63;;
11269;SDS011;5692;48.956;9.200;2023-09-30T12:58:00;332.60;;;316.73;;
11269;SDS011;5692;48.956;9.200;2023-09-30T13:00:26;341.80;;;325.50;;
11269;SDS011;5692;48.956;9.200;2023-09-30T13:02:52;330.17;;;314.40;;
11269;SDS011;5692;48.956;9.200;2023-09-30T13:05:18;346.87;;;330.30;;
11269;SDS011;5692;48.956;9.200;2023-09-30T13:07:45;341.47;;;325.17;;
11269;SDS011;5692;48.956;9.200;2023-09-30T13:10:11;318.77;;;303.53;;
11269;SDS011;5692;48.956;9.200;2023-09-30T13:12:38;324.53;;;309.03;;
11269;SDS011;5692;48.956;9.200;2023-09-30T13:15:04;328.07;;;312.37;;
11269;SDS011;5692;48.956;9.200;2023-09-30T13:17:30;343.73;;;327.30;;
11269;SDS011;5692;48.956;9.200;2023-09-30T13:19:56;326.43;;;310.83;;
11269;SDS011;5692;48.956;9.200;2023-09-30T13:22:23;344.87;;;328.37;;
11269;SDS011;5692;48.956;9.200;2023-09-30T13:24:48;342.13;;;325.83;;
11269;SDS011;5692;48.956;9.200;2023-09-30T13:27:14;347.93;;;331.30;;
11269;SDS011;5692;48.956;9.200;2023-09-30T13:29:42;329.60;;;313.90;;
11269;SDS011;5692;48.956;9.200;2023-09-30T13:32:10;349.40;;;332.70;;
11269;SDS011;5692;48.956;9.200;2023-09-30T13:34:35;342.30;;;325.97;;
11269;SDS011;5692;48.956;9.200;2023-09-30T13:37:01;344.93;;;328.47;;
11269;SDS011;5692;48.956;9.200;2023-09-30T13:39:27;355.97;;;338.97;;
11269;SDS011;5692;48.956;9.200;2023-09-30T13:41:54;360.07;;;342.87;;
11269;SDS011;5692;48.956;9.200;2023-09-30T13:44:19;352.87;;;336.00;;
11269;SDS011;5692;48.956;9.200;2023-09-30T13:46:46;346.57;;;330.00;;
11269;SDS011;5692;48.956;9.200;2023-09-30T13:49:15;338.90;;;322.73;;
11269;SDS011;5692;48.956;9.200;2023-09-30T13:51:40;346.37;;;329.83;;
11269;SDS011;5692;48.956;9.200;2023-09-30T13:54:06;350.97;;;334.20;;
11269;SDS011;5692;48.956;9.200;2023-09-30T13:56:32;326.90;;;311.27;;
11269;SDS011;5692;48.956;9.200;2023-09-30T13:58:58;358.00;;;340.90;;
11269;SDS011;5692;48.956;9.200;2023-09-30T14:01:25;348.20;;;331.60;;
11269;SDS011;5692;48.956;9.200;2023-09-30T14:03:52;347.13;;;330.57;;
11269;SDS011;5692;48.956;9.200;2023-09-30T14:06:22;332.17;;;316.30;;
11269;SDS011;5692;48.956;9.200;2023-09-30T14:08:47;343.17;;;326.77;;
11269;SDS011;5692;48.956;9.200;2023-09-30T14:11:13;324.97;;;309.43;;
11269;SDS011;5692;48.956;9.200;2023-09-30T14:13:39;347.20;;;330.60;;
11269;SDS011;5692;48.956;9.200;2023-09-30T14:16:04;340.33;;;324.07;;
11269;SDS011;5692;48.956;9.200;2023-09-30T14:18:31;352.88;;;336.02;;
11269;SDS011;5692;48.956;9.200;2023-09-30T14:20:57;339.33;;;323.10;;
11269;SDS011;5692;48.956;9.200;2023-09-30T14:23:23;340.33;;;324.07;;
11269;SDS011;5692;48.956;9.200;2023-09-30T14:25:49;349.65;;;332.95;;
11269;SDS011;5692;48.956;9.200;2023-09-30T14:28:15;346.07;;;329.53;;
11269;SDS011;5692;48.956;9.200;2023-09-30T14:30:40;319.70;;;304.40;;
11269;SDS011;5692;48.956;9.200;2023-09-30T14:33:06;354.47;;;337.57;;
11269;SDS011;5692;48.956;9.200;2023-09-30T14:35:35;329.67;;;313.93;;